Time;durP1;ratioP1;P1;durP2;ratioP2;P2;SDS_P1;SDS_P2;PMS_P1;PMS_P2;Temp;Humidity;BMP_temperature;BMP_pressure;BME280_temperature;BME280_humidity;BME280_pressure;Samples;Min_cycle;Max_cycle;Signal;HPM_P1;HPM_P2
2022/04/01 00:01:01;;;;;;;;;;;1.30;99.90;;;;;;5155024;27;19923;-67
2022/04/01 00:03:27;;;;;;;;;;;2.60;99.90;;;;;;5136843;27;19945;-67
2022/04/01 00:05:53;;;;;;;;;;;0.50;99.90;;;;;;5154808;27;20286;-67
2022/04/01 00:08:19;;;;;;;;;;;1.40;99.90;;;;;;5136228;27;19930;-68
2022/04/01 00:10:44;;;;;;;;;;;0.50;99.90;;;;;;5154632;27;19923;-68
2022/04/01 00:13:11;;;;;;;;;;;0.50;99.90;;;;;;5154930;27;19927;-67
2022/04/01 00:15:37;;;;;;;;;;;2.20;99.90;;;;;;5154895;27;19930;-68
2022/04/01 00:18:03;;;;;;;;;;;2.10;99.90;;;;;;5154797;27;19923;-67
2022/04/01 00:20:28;;;;;;;;;;;0.50;99.90;;;;;;5136231;27;19930;-67
2022/04/01 00:22:54;;;;;;;;;;;0.50;99.90;;;;;;5154635;27;19930;-69
2022/04/01 00:25:20;;;;;;;;;;;2.80;99.90;;;;;;5138739;27;19975;-68
2022/04/01 00:27:45;;;;;;;;;;;0.40;99.90;;;;;;5158539;27;19923;-67
2022/04/01 00:30:11;;;;;;;;;;;2.80;99.90;;;;;;5158464;27;19930;-67
2022/04/01 00:32:37;;;;;;;;;;;0.60;99.90;;;;;;5158449;27;19952;-68
2022/04/01 00:35:03;;;;;;;;;;;3.20;99.90;;;;;;5158358;27;20335;-68
2022/04/01 00:37:28;;;;;;;;;;;0.60;99.90;;;;;;5158276;27;19983;-67
2022/04/01 00:39:54;;;;;;;;;;;0.60;99.90;;;;;;5139169;27;19990;-68
2022/04/01 00:42:19;;;;;;;;;;;1.80;99.90;;;;;;5157909;27;19923;-68
2022/04/01 00:44:45;;;;;;;;;;;2.60;99.90;;;;;;5158420;27;20285;-67
2022/04/01 00:47:13;;;;;;;;;;;1.30;99.90;;;;;;5139604;27;19923;-68
2022/04/01 00:49:39;;;;;;;;;;;-0.70;99.90;;;;;;5158052;27;19935;-68
2022/04/01 00:52:06;;;;;;;;;;;2.00;99.90;;;;;;5158111;27;19985;-68
2022/04/01 00:54:32;;;;;;;;;;;0.80;99.90;;;;;;5157704;27;20413;-67
2022/04/01 00:56:59;;;;;;;;;;;1.50;99.90;;;;;;5157715;27;19927;-67
2022/04/01 00:59:25;;;;;;;;;;;2.50;99.90;;;;;;5157845;27;19923;-69
2022/04/01 01:01:50;;;;;;;;;;;1.40;99.90;;;;;;5157843;27;19930;-68
2022/04/01 01:04:17;;;;;;;;;;;0.90;99.90;;;;;;5157704;27;19923;-68
2022/04/01 01:06:44;;;;;;;;;;;0.90;99.90;;;;;;5157676;27;20006;-68
2022/04/01 01:09:10;;;;;;;;;;;3.20;99.90;;;;;;5122371;27;19935;-69
2022/04/01 01:11:36;;;;;;;;;;;0.90;99.90;;;;;;5117980;27;19923;-67
2022/04/01 01:14:02;;;;;;;;;;;1.00;99.90;;;;;;5116363;28;20286;-68
2022/04/01 01:16:28;;;;;;;;;;;1.00;99.90;;;;;;5116339;28;19923;-68
2022/04/01 01:19:07;;;;;;;;;;;2.60;99.90;;;;;;5115072;28;20386;-68
2022/04/01 01:21:33;;;;;;;;;;;0.20;99.90;;;;;;5132440;27;19930;-68
2022/04/01 01:24:00;;;;;;;;;;;0.90;99.90;;;;;;5122356;27;19928;-68
2022/04/01 01:26:26;;;;;;;;;;;3.00;99.90;;;;;;5115917;28;20022;-68
2022/04/01 01:28:52;;;;;;;;;;;2.80;99.90;;;;;;5114841;28;20014;-70
2022/04/01 01:31:18;;;;;;;;;;;1.10;99.90;;;;;;5119237;27;20001;-68
2022/04/01 01:33:44;;;;;;;;;;;0.70;99.90;;;;;;5115553;28;19924;-67
2022/04/01 01:36:10;;;;;;;;;;;1.60;99.90;;;;;;5117342;27;19924;-68
2022/04/01 01:38:36;;;;;;;;;;;1.10;99.90;;;;;;5115612;28;19924;-68
2022/04/01 01:41:02;;;;;;;;;;;1.20;99.90;;;;;;5100811;27;19936;-68
2022/04/01 01:43:29;;;;;;;;;;;1.10;99.90;;;;;;5118481;27;19978;-68
2022/04/01 01:45:55;;;;;;;;;;;1.10;99.90;;;;;;5117578;27;19923;-68
2022/04/01 01:48:22;;;;;;;;;;;1.00;99.90;;;;;;5115499;28;19947;-69
2022/04/01 01:56:17;;;;;;;;;;;3.30;99.90;;;;;;5115436;28;19931;-68
2022/04/01 01:58:43;;;;;;;;;;;1.80;99.90;;;;;;5115134;28;19923;-68
2022/04/01 02:01:08;;;;;;;;;;;1.00;99.90;;;;;;5115350;28;19924;-68
2022/04/01 02:03:34;;;;;;;;;;;2.20;99.90;;;;;;5115328;28;20371;-68
2022/04/01 02:06:00;;;;;;;;;;;1.00;99.90;;;;;;5115061;28;19924;-68
2022/04/01 02:08:25;;;;;;;;;;;1.10;99.90;;;;;;5128104;27;19930;-68
2022/04/01 02:10:51;;;;;;;;;;;1.00;99.90;;;;;;5156482;27;19923;-69
2022/04/01 02:13:17;;;;;;;;;;;1.00;99.90;;;;;;5156193;27;19975;-69
2022/04/01 02:15:43;;;;;;;;;;;1.10;99.90;;;;;;5156406;27;20294;-69
2022/04/01 02:18:10;;;;;;;;;;;1.90;99.90;;;;;;5156094;27;19927;-68
2022/04/01 02:20:36;;;;;;;;;;;-1.00;99.90;;;;;;5156154;27;19923;-67
2022/04/01 02:23:03;;;;;;;;;;;1.10;99.90;;;;;;5156435;27;19923;-68
2022/04/01 02:25:29;;;;;;;;;;;1.00;99.90;;;;;;5156162;27;19985;-67
2022/04/01 02:27:55;;;;;;;;;;;2.20;99.90;;;;;;5156129;27;19970;-68
2022/04/01 02:30:20;;;;;;;;;;;3.00;99.90;;;;;;5155926;27;19923;-68
2022/04/01 02:32:47;;;;;;;;;;;1.10;99.90;;;;;;5155864;27;19927;-67
2022/04/01 02:35:12;;;;;;;;;;;2.20;99.90;;;;;;5155892;27;19975;-69
2022/04/01 02:37:39;;;;;;;;;;;1.00;99.90;;;;;;5155798;27;20297;-68
2022/04/01 02:40:05;;;;;;;;;;;1.10;99.90;;;;;;5137070;27;19975;-68
2022/04/01 02:42:31;;;;;;;;;;;1.10;99.90;;;;;;5155755;27;20056;-68
2022/04/01 02:44:57;;;;;;;;;;;2.00;99.90;;;;;;5155976;27;20005;-68
2022/04/01 02:47:24;;;;;;;;;;;1.60;99.90;;;;;;5155096;27;19930;-69
2022/04/01 02:49:50;;;;;;;;;;;1.00;99.90;;;;;;5155644;27;20021;-69
2022/04/01 02:52:16;;;;;;;;;;;1.00;99.90;;;;;;5155817;27;20026;-67
2022/04/01 02:54:42;;;;;;;;;;;1.10;99.90;;;;;;5155428;27;19923;-69
2022/04/01 02:57:09;;;;;;;;;;;1.00;99.90;;;;;;5155785;27;19927;-69
2022/04/01 02:59:35;;;;;;;;;;;1.60;99.90;;;;;;5155616;27;20021;-68
2022/04/01 03:02:00;;;;;;;;;;;1.10;99.90;;;;;;5136610;27;19972;-68
2022/04/01 03:04:26;;;;;;;;;;;1.10;99.90;;;;;;5155447;27;19923;-67
2022/04/01 03:06:51;;;;;;;;;;;1.50;99.90;;;;;;5136970;27;20013;-68
2022/04/01 03:09:17;;;;;;;;;;;2.40;99.90;;;;;;5155018;27;19923;-68
2022/04/01 03:11:43;;;;;;;;;;;3.20;99.90;;;;;;5155562;27;19939;-69
2022/04/01 03:14:09;;;;;;;;;;;1.20;99.90;;;;;;5155495;27;19923;-69
2022/04/01 03:16:38;;;;;;;;;;;1.20;99.90;;;;;;5155462;27;20297;-69
2022/04/01 03:19:08;;;;;;;;;;;1.30;99.90;;;;;;5155303;27;20370;-68
2022/04/01 03:21:38;;;;;;;;;;;1.20;99.90;;;;;;5155383;27;19927;-68
2022/04/01 03:24:03;;;;;;;;;;;1.20;99.90;;;;;;5155137;27;19930;-69
2022/04/01 03:26:29;;;;;;;;;;;1.30;99.90;;;;;;5155226;27;19923;-68
2022/04/01 03:28:55;;;;;;;;;;;1.30;99.90;;;;;;5155332;27;20129;-69
2022/04/01 03:31:20;;;;;;;;;;;3.40;99.90;;;;;;5155329;27;19956;-69
2022/04/01 03:33:46;;;;;;;;;;;1.30;99.90;;;;;;5155264;27;19923;-68
2022/04/01 03:36:13;;;;;;;;;;;0.50;99.90;;;;;;5155205;27;19923;-69
2022/04/01 03:38:39;;;;;;;;;;;3.60;99.90;;;;;;5154896;27;19950;-68
2022/04/01 03:41:05;;;;;;;;;;;2.50;99.90;;;;;;5137119;27;19927;-68
2022/04/01 03:43:31;;;;;;;;;;;1.40;99.90;;;;;;5137081;27;19982;-68
2022/04/01 03:45:58;;;;;;;;;;;1.90;99.90;;;;;;5154997;27;20297;-68
2022/04/01 03:48:29;;;;;;;;;;;2.60;99.90;;;;;;5155087;27;19968;-68
2022/04/01 03:50:58;;;;;;;;;;;1.50;99.90;;;;;;5136169;27;20293;-68
2022/04/01 03:53:25;;;;;;;;;;;2.10;99.90;;;;;;5154899;27;19923;-68
2022/04/01 03:55:51;;;;;;;;;;;3.00;99.90;;;;;;5155109;27;19923;-69
2022/04/01 03:58:18;;;;;;;;;;;1.50;99.90;;;;;;5155869;27;19930;-68
2022/04/01 04:00:44;;;;;;;;;;;2.00;99.90;;;;;;5158909;27;20013;-69
2022/04/01 04:03:10;;;;;;;;;;;1.50;99.90;;;;;;5158883;27;19993;-68
2022/04/01 04:05:36;;;;;;;;;;;1.40;99.90;;;;;;5140646;27;19923;-69
2022/04/01 04:08:07;;;;;;;;;;;2.90;99.90;;;;;;5158518;27;20013;-68
2022/04/01 04:10:34;;;;;;;;;;;1.50;99.90;;;;;;5158833;27;19923;-70
2022/04/01 04:13:00;;;;;;;;;;;2.60;99.90;;;;;;5159042;27;19927;-68
2022/04/01 04:15:26;;;;;;;;;;;1.90;99.90;;;;;;5158794;27;19923;-68
2022/04/01 04:17:54;;;;;;;;;;;1.50;99.90;;;;;;5158584;27;19923;-68
2022/04/01 04:20:19;;;;;;;;;;;2.60;99.90;;;;;;5158446;27;19923;-69
2022/04/01 04:23:00;;;;;;;;;;;1.50;99.90;;;;;;5158722;27;19930;-70
2022/04/01 04:25:32;;;;;;;;;;;1.50;99.90;;;;;;5158471;27;19930;-70
2022/04/01 04:27:58;;;;;;;;;;;1.50;99.90;;;;;;5158480;27;19927;-68
2022/04/01 04:30:28;;;;;;;;;;;1.80;99.90;;;;;;5140011;27;19931;-68
2022/04/01 04:33:01;;;;;;;;;;;2.20;99.90;;;;;;5158282;27;19962;-68
2022/04/01 04:35:28;;;;;;;;;;;1.50;99.90;;;;;;5158142;27;20400;-70
2022/04/01 04:37:55;;;;;;;;;;;2.10;99.90;;;;;;5158375;27;19923;-70
2022/04/01 04:40:21;;;;;;;;;;;2.10;99.90;;;;;;5158084;27;19970;-68
2022/04/01 04:42:50;;;;;;;;;;;3.40;99.90;;;;;;5158147;27;19923;-70
2022/04/01 04:45:18;;;;;;;;;;;3.20;99.90;;;;;;5158158;27;20297;-69
2022/04/01 04:47:45;;;;;;;;;;;1.30;99.90;;;;;;5158011;27;20343;-69
2022/04/01 04:50:11;;;;;;;;;;;3.00;99.90;;;;;;5157910;27;19934;-67
2022/04/01 04:52:38;;;;;;;;;;;3.40;99.90;;;;;;5158066;27;20017;-68
2022/04/01 04:55:06;;;;;;;;;;;3.20;99.90;;;;;;5157963;27;20385;-69
2022/04/01 04:57:32;;;;;;;;;;;1.50;99.90;;;;;;5157893;27;19931;-67
2022/04/01 04:59:58;;;;;;;;;;;3.40;99.90;;;;;;5139326;27;19934;-68
2022/04/01 05:02:26;;;;;;;;;;;1.80;99.90;;;;;;5157689;27;20386;-67
2022/04/01 05:04:58;;;;;;;;;;;1.60;99.90;;;;;;5139357;27;19927;-68
2022/04/01 05:07:34;;;;;;;;;;;1.60;99.90;;;;;;5157800;27;20312;-67
2022/04/01 05:10:08;;;;;;;;;;;1.50;99.90;;;;;;5138242;27;20293;-68
2022/04/01 05:12:40;;;;;;;;;;;1.50;99.90;;;;;;5139348;27;19975;-69
2022/04/01 05:15:09;;;;;;;;;;;3.40;99.90;;;;;;5139279;27;19930;-67
2022/04/01 05:17:44;;;;;;;;;;;1.50;99.90;;;;;;5157595;27;20361;-67
2022/04/01 05:20:16;;;;;;;;;;;1.50;99.90;;;;;;5138913;27;19930;-67
2022/04/01 05:22:53;;;;;;;;;;;-0.30;99.90;;;;;;5157388;27;19923;-68
2022/04/01 05:25:20;;;;;;;;;;;1.50;99.90;;;;;;5157249;27;19927;-67
2022/04/01 05:27:48;;;;;;;;;;;1.80;99.90;;;;;;5157145;27;19923;-69
2022/04/01 05:30:16;;;;;;;;;;;1.40;99.90;;;;;;5157334;27;20275;-68
2022/04/01 05:32:47;;;;;;;;;;;2.10;99.90;;;;;;5157290;27;19927;-67
2022/04/01 05:35:14;;;;;;;;;;;1.60;99.90;;;;;;5157173;27;19974;-67
2022/04/01 05:37:40;;;;;;;;;;;1.90;99.90;;;;;;5157003;27;20404;-69
2022/04/01 05:40:06;;;;;;;;;;;2.90;99.90;;;;;;5156774;27;19930;-68
2022/04/01 05:42:32;;;;;;;;;;;1.60;99.90;;;;;;5156781;27;19923;-68
2022/04/01 05:45:01;;;;;;;;;;;1.50;99.90;;;;;;5157064;27;19981;-67
2022/04/01 05:47:30;;;;;;;;;;;1.60;99.90;;;;;;5156951;27;19923;-68
2022/04/01 05:49:59;;;;;;;;;;;1.60;99.90;;;;;;5156895;27;19924;-69
2022/04/01 05:52:25;;;;;;;;;;;1.60;99.90;;;;;;5138235;27;19930;-68
2022/04/01 05:54:50;;;;;;;;;;;2.70;99.90;;;;;;5137974;27;19923;-66
2022/04/01 05:57:18;;;;;;;;;;;3.00;99.90;;;;;;5138383;27;19924;-67
2022/04/01 05:59:43;;;;;;;;;;;1.60;99.90;;;;;;5156661;27;19923;-68
2022/04/01 06:02:33;;;;;;;;;;;1.60;99.90;;;;;;5156666;27;19930;-68
2022/04/01 06:05:14;;;;;;;;;;;1.60;99.90;;;;;;5137587;27;19927;-68
2022/04/01 06:07:44;;;;;;;;;;;1.70;99.90;;;;;;5156033;27;20369;-68
2022/04/01 06:10:29;;;;;;;;;;;1.60;99.90;;;;;;5156478;27;19923;-68
2022/04/01 06:13:13;;;;;;;;;;;1.60;99.90;;;;;;5156421;27;20006;-67
2022/04/01 06:15:45;;;;;;;;;;;1.70;99.90;;;;;;5156277;27;20381;-67
2022/04/01 06:18:18;;;;;;;;;;;1.70;99.90;;;;;;5137678;27;19948;-67
2022/04/01 06:20:46;;;;;;;;;;;1.70;99.90;;;;;;5156344;27;19931;-67
2022/04/01 06:23:14;;;;;;;;;;;1.60;99.90;;;;;;5155278;27;19973;-67
2022/04/01 06:25:44;;;;;;;;;;;1.70;99.90;;;;;;5156109;27;19931;-68
2022/04/01 06:28:26;;;;;;;;;;;1.80;99.90;;;;;;5154834;27;20438;-67
2022/04/01 06:30:53;;;;;;;;;;;1.80;99.90;;;;;;5137609;27;19923;-67
2022/04/01 06:33:18;;;;;;;;;;;2.40;99.90;;;;;;5155765;27;20384;-69
2022/04/01 06:35:53;;;;;;;;;;;3.70;99.90;;;;;;5155939;27;19978;-69
2022/04/01 06:38:30;;;;;;;;;;;1.80;99.90;;;;;;5137172;27;19927;-67
2022/04/01 06:40:58;;;;;;;;;;;1.80;99.90;;;;;;5155689;27;19975;-69
2022/04/01 06:43:24;;;;;;;;;;;1.70;99.90;;;;;;5155732;27;19931;-68
2022/04/01 06:45:50;;;;;;;;;;;1.70;99.90;;;;;;5156136;27;19930;-68
2022/04/01 06:48:15;;;;;;;;;;;2.70;99.90;;;;;;5155729;27;20013;-67
2022/04/01 06:50:49;;;;;;;;;;;1.60;99.90;;;;;;5137204;27;20095;-69
2022/04/01 06:53:15;;;;;;;;;;;3.50;99.90;;;;;;5137497;27;19923;-67
2022/04/01 06:55:41;;;;;;;;;;;1.60;99.90;;;;;;5137151;27;19927;-67
2022/04/01 06:58:11;;;;;;;;;;;1.70;99.90;;;;;;5155300;27;19927;-69
2022/04/01 07:00:37;;;;;;;;;;;3.50;99.90;;;;;;5136830;27;19923;-67
2022/04/01 07:03:02;;;;;;;;;;;1.60;99.90;;;;;;5155608;27;20338;-67
2022/04/01 07:05:28;;;;;;;;;;;2.10;99.90;;;;;;5137407;27;20013;-67
2022/04/01 07:07:54;;;;;;;;;;;1.70;99.90;;;;;;5155369;27;20373;-67
2022/04/01 07:10:20;;;;;;;;;;;1.70;99.90;;;;;;5155231;27;20404;-67
2022/04/01 07:12:45;;;;;;;;;;;1.70;99.90;;;;;;5155254;27;19924;-68
2022/04/01 07:15:11;;;;;;;;;;;1.70;99.90;;;;;;5155269;27;20404;-66
2022/04/01 07:17:37;;;;;;;;;;;2.90;99.90;;;;;;5155458;27;19927;-68
2022/04/01 07:20:03;;;;;;;;;;;1.70;99.90;;;;;;5136688;27;19930;-68
2022/04/01 07:22:29;;;;;;;;;;;1.70;99.90;;;;;;5136753;27;19980;-68
2022/04/01 07:24:55;;;;;;;;;;;2.40;99.90;;;;;;5137086;27;19968;-67
2022/04/01 07:27:21;;;;;;;;;;;1.20;99.90;;;;;;5155174;27;19923;-67
2022/04/01 07:29:47;;;;;;;;;;;2.50;99.90;;;;;;5154875;27;19977;-68
2022/04/01 07:32:32;;;;;;;;;;;3.60;99.90;;;;;;5155525;27;19978;-67
2022/04/01 07:35:01;;;;;;;;;;;1.60;99.90;;;;;;5159045;27;19923;-67
2022/04/01 07:37:27;;;;;;;;;;;1.60;99.90;;;;;;5159389;27;20374;-69
2022/04/01 07:39:54;;;;;;;;;;;3.00;99.90;;;;;;5159173;27;19923;-67
2022/04/01 07:42:21;;;;;;;;;;;2.40;99.90;;;;;;5159086;27;19923;-67
2022/04/01 07:44:50;;;;;;;;;;;2.70;99.90;;;;;;5141124;27;19923;-66
2022/04/01 07:47:18;;;;;;;;;;;1.70;99.90;;;;;;5159316;27;19978;-67
2022/04/01 07:49:44;;;;;;;;;;;2.40;99.90;;;;;;5159279;27;19973;-69
2022/04/01 07:52:11;;;;;;;;;;;3.20;99.90;;;;;;5159303;27;19923;-69
2022/04/01 07:54:37;;;;;;;;;;;1.70;99.90;;;;;;5158962;27;19983;-67
2022/04/01 07:57:04;;;;;;;;;;;1.70;99.90;;;;;;5158768;27;19923;-67
2022/04/01 07:59:29;;;;;;;;;;;1.80;99.90;;;;;;5159002;27;19930;-70
2022/04/01 08:01:55;;;;;;;;;;;1.80;99.90;;;;;;5140488;27;19923;-67
2022/04/01 08:04:21;;;;;;;;;;;2.70;99.90;;;;;;5158872;27;19946;-68
2022/04/01 08:06:46;;;;;;;;;;;4.10;99.90;;;;;;5140538;27;19923;-67
2022/04/01 08:09:17;;;;;;;;;;;2.20;99.90;;;;;;5158813;27;19923;-67
2022/04/01 08:11:43;;;;;;;;;;;1.80;99.90;;;;;;5158578;27;19923;-67
2022/04/01 08:14:08;;;;;;;;;;;3.40;99.90;;;;;;5158809;27;19923;-67
2022/04/01 08:16:34;;;;;;;;;;;1.80;99.90;;;;;;5158613;27;19930;-69
2022/04/01 08:18:59;;;;;;;;;;;1.90;99.90;;;;;;5158586;27;19923;-68
2022/04/01 08:21:26;;;;;;;;;;;2.40;99.90;;;;;;5158630;27;19971;-68
2022/04/01 08:23:51;;;;;;;;;;;1.90;99.90;;;;;;5158421;27;19923;-67
2022/04/01 08:26:17;;;;;;;;;;;1.90;99.90;;;;;;5158314;27;19945;-69
2022/04/01 08:28:43;;;;;;;;;;;1.90;99.90;;;;;;5140004;27;19927;-67
2022/04/01 08:31:09;;;;;;;;;;;1.80;99.90;;;;;;5157960;27;20252;-68
2022/04/01 08:33:35;;;;;;;;;;;3.90;99.90;;;;;;5158185;27;19923;-66
2022/04/01 08:36:01;;;;;;;;;;;1.80;99.90;;;;;;5158244;27;19923;-69
2022/04/01 08:38:26;;;;;;;;;;;1.90;99.90;;;;;;5158104;27;19946;-68
2022/04/01 08:40:52;;;;;;;;;;;1.90;99.90;;;;;;5139526;27;19929;-69
2022/04/01 08:43:31;;;;;;;;;;;1.90;99.90;;;;;;5157939;27;20026;-67
2022/04/01 08:45:58;;;;;;;;;;;1.90;99.90;;;;;;5138874;27;20014;-67
2022/04/01 08:48:24;;;;;;;;;;;1.80;99.90;;;;;;5122745;27;20369;-68
2022/04/01 08:50:50;;;;;;;;;;;2.90;99.90;;;;;;5139266;27;19970;-68
2022/04/01 08:53:16;;;;;;;;;;;1.70;99.90;;;;;;5139787;27;19970;-67
2022/04/01 08:55:48;;;;;;;;;;;1.70;99.90;;;;;;5139556;27;20364;-67
2022/04/01 08:58:17;;;;;;;;;;;1.70;99.90;;;;;;5139394;27;20014;-67
2022/04/01 09:00:44;;;;;;;;;;;3.80;99.90;;;;;;5157827;27;19971;-69
2022/04/01 09:03:10;;;;;;;;;;;3.90;99.90;;;;;;5157842;27;19923;-67
2022/04/01 09:05:36;;;;;;;;;;;3.40;99.90;;;;;;5139443;27;19982;-67
2022/04/01 09:08:03;;;;;;;;;;;3.50;99.90;;;;;;5157369;27;19962;-67
2022/04/01 09:10:29;;;;;;;;;;;1.70;99.90;;;;;;5157485;27;19927;-68
2022/04/01 09:12:54;;;;;;;;;;;1.70;99.90;;;;;;5138886;27;19923;-68
2022/04/01 09:15:20;;;;;;;;;;;2.00;99.90;;;;;;5138783;27;20018;-67
2022/04/01 09:17:47;;;;;;;;;;;2.20;99.90;;;;;;5157496;27;19982;-67
2022/04/01 09:20:14;;;;;;;;;;;1.80;99.90;;;;;;5157338;27;20021;-67
2022/04/01 09:22:40;;;;;;;;;;;3.10;99.90;;;;;;5157187;27;19923;-67
2022/04/01 09:25:09;;;;;;;;;;;1.90;99.90;;;;;;5156801;27;20301;-69
2022/04/01 09:27:46;;;;;;;;;;;1.90;99.90;;;;;;5157324;27;19953;-67
2022/04/01 09:30:11;;;;;;;;;;;1.90;99.90;;;;;;5157294;27;19968;-67
2022/04/01 09:32:44;;;;;;;;;;;2.00;99.90;;;;;;5157299;27;19923;-67
2022/04/01 09:35:11;;;;;;;;;;;2.10;99.90;;;;;;5157148;27;20393;-67
2022/04/01 09:37:37;;;;;;;;;;;2.80;99.90;;;;;;5138720;27;20014;-67
2022/04/01 09:40:03;;;;;;;;;;;2.30;99.90;;;;;;5157070;27;19923;-66
2022/04/01 09:42:28;;;;;;;;;;;2.20;99.90;;;;;;5157085;27;20385;-67
2022/04/01 09:44:57;;;;;;;;;;;3.90;99.90;;;;;;5156806;27;19931;-68
2022/04/01 09:47:23;;;;;;;;;;;2.20;99.90;;;;;;5138706;27;19923;-69
2022/04/01 09:49:52;;;;;;;;;;;3.40;99.90;;;;;;5138597;27;19930;-67
2022/04/01 09:52:22;;;;;;;;;;;3.20;99.90;;;;;;5138560;27;19987;-67
2022/04/01 09:54:47;;;;;;;;;;;2.60;99.90;;;;;;5156541;27;19979;-68
2022/04/01 09:57:13;;;;;;;;;;;4.20;99.90;;;;;;5156565;27;19926;-68
2022/04/01 09:59:40;;;;;;;;;;;3.90;99.90;;;;;;5156568;27;19923;-68
2022/04/01 10:02:06;;;;;;;;;;;3.30;99.90;;;;;;5156388;27;20390;-68
2022/04/01 10:04:33;;;;;;;;;;;2.10;99.90;;;;;;5155850;27;20425;-66
2022/04/01 10:07:00;;;;;;;;;;;2.10;99.90;;;;;;5156247;27;19923;-67
2022/04/01 10:09:43;;;;;;;;;;;1.60;99.90;;;;;;5156187;27;19968;-67
2022/04/01 10:12:13;;;;;;;;;;;2.10;99.90;;;;;;5156148;27;20412;-67
2022/04/01 10:14:40;;;;;;;;;;;2.10;99.90;;;;;;5156279;27;19927;-66
2022/04/01 10:17:09;;;;;;;;;;;2.70;99.90;;;;;;5156213;27;19923;-67
2022/04/01 10:19:37;;;;;;;;;;;2.30;99.90;;;;;;5136997;27;19930;-67
2022/04/01 10:22:03;;;;;;;;;;;3.30;99.90;;;;;;5137716;27;19984;-67
2022/04/01 10:24:34;;;;;;;;;;;2.20;99.90;;;;;;5156237;27;20393;-69
2022/04/01 10:27:21;;;;;;;;;;;2.10;99.90;;;;;;5156178;27;19923;-69
2022/04/01 10:29:47;;;;;;;;;;;3.20;99.90;;;;;;5155766;27;20386;-68
2022/04/01 10:32:42;;;;;;;;;;;2.10;99.90;;;;;;5155934;27;20196;-68
2022/04/01 10:35:19;;;;;;;;;;;2.10;99.90;;;;;;5052089;28;19925;-67
2022/04/01 10:37:45;;;;;;;;;;;2.10;99.90;;;;;;5035473;28;19929;-67
2022/04/01 10:40:17;;;;;;;;;;;1.80;99.90;;;;;;5038346;28;20430;-67
2022/04/01 10:42:43;;;;;;;;;;;2.10;99.90;;;;;;5051653;28;19924;-69
2022/04/01 10:45:14;;;;;;;;;;;4.00;99.90;;;;;;5045986;28;19932;-67
2022/04/01 10:53:48;;;;;;;;;;;2.20;99.90;;;;;;5071535;28;20387;-69
2022/04/01 10:56:20;;;;;;;;;;;2.70;99.90;;;;;;5071466;28;20027;-67
2022/04/01 10:59:04;;;;;;;;;;;2.30;99.90;;;;;;5071552;28;19978;-68
2022/04/01 11:01:30;;;;;;;;;;;2.40;99.90;;;;;;5071403;28;20420;-67
2022/04/01 11:04:00;;;;;;;;;;;2.40;99.90;;;;;;5071402;28;20371;-67
2022/04/01 11:06:28;;;;;;;;;;;2.50;99.90;;;;;;5071434;28;19934;-67
2022/04/01 11:08:55;;;;;;;;;;;3.90;99.90;;;;;;5070651;28;19930;-67
2022/04/01 11:11:20;;;;;;;;;;;2.60;99.90;;;;;;5107430;27;19976;-67
2022/04/01 11:14:02;;;;;;;;;;;2.50;99.90;;;;;;5155432;27;19927;-67
2022/04/01 11:16:44;;;;;;;;;;;2.60;99.90;;;;;;5135109;27;19942;-68
2022/04/01 11:19:13;;;;;;;;;;;2.60;99.90;;;;;;5155097;27;19978;-67
2022/04/01 11:21:39;;;;;;;;;;;2.70;99.90;;;;;;5155045;27;20369;-67
2022/04/01 11:24:23;;;;;;;;;;;4.40;99.90;;;;;;5155086;27;19968;-68
2022/04/01 11:26:49;;;;;;;;;;;2.70;99.90;;;;;;5136079;27;19980;-69
2022/04/01 11:29:17;;;;;;;;;;;2.90;99.90;;;;;;5136598;27;19923;-68
2022/04/01 11:31:43;;;;;;;;;;;2.80;99.90;;;;;;5154676;27;20385;-67
2022/04/01 11:34:10;;;;;;;;;;;3.30;99.90;;;;;;5154962;27;19948;-67
2022/04/01 11:36:36;;;;;;;;;;;2.70;99.90;;;;;;5154858;27;19969;-68
2022/04/01 11:39:05;;;;;;;;;;;3.80;99.90;;;;;;5154472;27;19970;-68
2022/04/01 11:41:44;;;;;;;;;;;3.80;99.90;;;;;;5154771;27;19923;-69
2022/04/01 11:44:09;;;;;;;;;;;2.80;99.90;;;;;;5155065;27;19923;-68
2022/04/01 11:46:36;;;;;;;;;;;2.80;99.90;;;;;;5154997;27;19930;-66
2022/04/01 11:49:01;;;;;;;;;;;3.70;99.90;;;;;;5154631;27;19924;-68
2022/04/01 11:51:28;;;;;;;;;;;3.60;99.90;;;;;;5154885;27;20384;-67
2022/04/01 11:53:56;;;;;;;;;;;2.90;99.90;;;;;;5154600;27;20359;-67
2022/04/01 11:56:28;;;;;;;;;;;4.20;99.90;;;;;;5154597;27;20263;-67
2022/04/01 11:58:55;;;;;;;;;;;3.00;99.90;;;;;;5136077;27;19923;-68
2022/04/01 12:01:28;;;;;;;;;;;3.00;99.90;;;;;;5136622;27;19930;-67
2022/04/01 12:04:00;;;;;;;;;;;3.00;99.90;;;;;;5154850;27;19923;-68
2022/04/01 12:09:10;;;;;;;;;;;3.10;99.90;;;;;;5154538;27;19970;-69
2022/04/01 12:11:42;;;;;;;;;;;3.10;99.90;;;;;;5155025;27;19959;-68
2022/04/01 12:14:08;;;;;;;;;;;3.10;99.90;;;;;;5135874;27;19923;-67
2022/04/01 12:16:38;;;;;;;;;;;3.80;99.90;;;;;;5154184;27;20334;-67
2022/04/01 12:19:04;;;;;;;;;;;3.10;99.90;;;;;;5155284;27;19923;-67
2022/04/01 12:21:29;;;;;;;;;;;3.60;99.90;;;;;;5158737;27;20403;-68
2022/04/01 12:23:55;;;;;;;;;;;3.40;99.90;;;;;;5158513;27;20297;-68
2022/04/01 12:26:24;;;;;;;;;;;3.20;99.90;;;;;;5157866;27;19923;-67
2022/04/01 12:28:50;;;;;;;;;;;3.20;99.90;;;;;;5157722;27;19923;-69
2022/04/01 12:31:20;;;;;;;;;;;4.00;99.90;;;;;;5157735;27;20455;-68
2022/04/01 12:33:47;;;;;;;;;;;3.30;99.90;;;;;;5177070;27;19991;-67
2022/04/01 12:36:13;;;;;;;;;;;5.00;99.90;;;;;;5178650;27;20388;-68
2022/04/01 12:38:40;;;;;;;;;;;3.30;99.90;;;;;;5160165;27;19929;-69
2022/04/01 12:41:16;;;;;;;;;;;5.00;99.90;;;;;;5177878;27;19945;-67
2022/04/01 12:43:49;;;;;;;;;;;3.40;99.90;;;;;;5144832;27;20393;-66
2022/04/01 12:46:16;;;;;;;;;;;3.50;99.90;;;;;;5139567;27;20380;-69
2022/04/01 12:48:53;;;;;;;;;;;4.20;99.90;;;;;;5139343;27;19922;-66
2022/04/01 12:51:28;;;;;;;;;;;3.50;99.90;;;;;;5139357;27;20001;-67
2022/04/01 12:53:55;;;;;;;;;;;3.50;99.90;;;;;;5158193;27;19923;-68
2022/04/01 12:56:22;;;;;;;;;;;3.60;99.90;;;;;;5157562;27;20393;-67
2022/04/01 12:58:48;;;;;;;;;;;3.60;99.90;;;;;;5157494;27;19930;-69
2022/04/01 13:01:14;;;;;;;;;;;3.80;99.90;;;;;;5167051;27;19922;-67
2022/04/01 13:03:47;;;;;;;;;;;3.70;99.90;;;;;;5173126;27;19946;-69
2022/04/01 13:06:13;;;;;;;;;;;3.80;99.90;;;;;;5169355;27;19946;-68
2022/04/01 13:08:39;;;;;;;;;;;3.80;99.90;;;;;;5178207;27;19923;-68
2022/04/01 13:11:11;;;;;;;;;;;4.40;99.90;;;;;;5178355;27;20345;-68
2022/04/01 13:13:37;;;;;;;;;;;3.90;99.90;;;;;;5178239;27;20020;-66
2022/04/01 13:16:02;;;;;;;;;;;5.90;99.90;;;;;;5167274;27;20006;-69
2022/04/01 13:18:32;;;;;;;;;;;4.00;99.90;;;;;;5159267;27;19927;-67
2022/04/01 13:20:58;;;;;;;;;;;4.90;99.90;;;;;;5157142;27;19923;-68
2022/04/01 13:23:25;;;;;;;;;;;4.90;99.90;;;;;;5137916;27;19930;-69
2022/04/01 13:25:50;;;;;;;;;;;4.60;99.90;;;;;;5158178;27;20071;-69
2022/04/01 13:28:16;;;;;;;;;;;4.10;99.90;;;;;;5166642;27;20014;-69
2022/04/01 13:30:42;;;;;;;;;;;4.20;99.90;;;;;;5156375;27;19930;-70
2022/04/01 13:33:07;;;;;;;;;;;5.70;99.90;;;;;;5156929;27;19929;-67
2022/04/01 13:35:33;;;;;;;;;;;4.30;99.90;;;;;;5138823;27;19929;-67
2022/04/01 13:37:59;;;;;;;;;;;4.30;99.90;;;;;;5156560;27;19927;-68
2022/04/01 13:40:25;;;;;;;;;;;4.80;99.90;;;;;;5147868;27;19923;-69
2022/04/01 13:42:52;;;;;;;;;;;4.70;99.90;;;;;;5177598;27;19923;-68
2022/04/01 13:45:18;;;;;;;;;;;4.40;99.90;;;;;;5177535;27;19922;-67
2022/04/01 13:47:43;;;;;;;;;;;4.90;99.90;;;;;;5157623;27;20384;-68
2022/04/01 13:50:09;;;;;;;;;;;4.50;99.90;;;;;;5162534;27;19927;-69
2022/04/01 13:52:35;;;;;;;;;;;4.50;99.90;;;;;;5156615;27;20021;-66
2022/04/01 13:55:01;;;;;;;;;;;5.10;99.90;;;;;;5167297;27;20266;-69
2022/04/01 13:57:27;;;;;;;;;;;4.50;99.90;;;;;;5158696;27;20022;-67
2022/04/01 13:59:53;;;;;;;;;;;4.50;99.90;;;;;;5169900;27;19923;-70
2022/04/01 14:02:18;;;;;;;;;;;4.70;99.90;;;;;;5120641;27;20385;-67
2022/04/01 14:04:44;;;;;;;;;;;4.60;99.90;;;;;;5138366;27;20010;-68
2022/04/01 14:07:10;;;;;;;;;;;4.60;99.90;;;;;;5154957;27;19934;-67
2022/04/01 14:09:36;;;;;;;;;;;5.20;99.90;;;;;;5162870;27;20373;-67
2022/04/01 14:12:03;;;;;;;;;;;4.60;99.90;;;;;;5173920;27;19923;-70
2022/04/01 14:14:28;;;;;;;;;;;4.70;99.90;;;;;;5177072;27;20289;-69
2022/04/01 14:16:54;;;;;;;;;;;4.70;99.90;;;;;;5159203;27;19923;-68
2022/04/01 14:19:20;;;;;;;;;;;4.70;99.90;;;;;;5156246;27;20335;-67
2022/04/01 14:21:47;;;;;;;;;;;4.70;99.90;;;;;;5156315;27;19929;-68
2022/04/01 14:24:13;;;;;;;;;;;5.30;99.90;;;;;;5156177;27;19930;-68
2022/04/01 14:26:38;;;;;;;;;;;4.70;99.90;;;;;;5155922;27;19927;-67
2022/04/01 14:31:57;;;;;;;;;;;5.80;99.90;;;;;;5156137;27;19983;-68
2022/04/01 14:34:34;;;;;;;;;;;5.00;99.90;;;;;;5158964;27;19923;-68
2022/04/01 14:37:00;;;;;;;;;;;4.90;99.90;;;;;;5155905;27;19924;-71
2022/04/01 14:39:26;;;;;;;;;;;5.90;99.90;;;;;;5161736;27;20292;-68
2022/04/01 14:41:52;;;;;;;;;;;5.10;99.90;;;;;;5176319;27;20017;-68
2022/04/01 14:44:17;;;;;;;;;;;5.70;99.90;;;;;;5160380;27;20039;-69
2022/04/01 14:46:43;;;;;;;;;;;4.10;99.90;;;;;;5171454;27;19933;-68
2022/04/01 14:49:10;;;;;;;;;;;4.70;99.90;;;;;;5160813;27;19927;-68
2022/04/01 14:51:35;;;;;;;;;;;5.00;99.90;;;;;;5155609;27;20271;-67